createdAt,value
2018-03-02T00:01:08.556Z,46.92
2018-03-02T00:03:37.136Z,46.80
2018-03-02T00:06:05.821Z,46.93
2018-03-02T00:08:34.502Z,46.94
2018-03-02T00:11:03.193Z,47.92
2018-03-02T00:13:31.829Z,47.91
2018-03-02T00:16:01.551Z,47.24
2018-03-02T00:18:30.273Z,47.65
2018-03-02T00:20:58.958Z,48.83
2018-03-02T00:23:27.649Z,48.93
2018-03-02T00:25:56.214Z,49.08
2018-03-02T00:28:24.917Z,49.43
2018-03-02T00:30:53.591Z,49.82
2018-03-02T00:33:22.145Z,49.36
2018-03-02T00:35:50.864Z,50.47
2018-03-02T00:38:19.660Z,51.29
2018-03-02T00:40:48.236Z,50.95
2018-03-02T00:43:16.922Z,50.81
2018-03-02T00:45:45.805Z,49.59
2018-03-02T00:48:14.504Z,49.55
2018-03-02T00:50:43.148Z,49.89
2018-03-02T00:53:11.875Z,49.80
2018-03-02T00:55:40.662Z,49.83
2018-03-02T00:58:10.128Z,49.42
2018-03-02T01:00:38.806Z,48.95
2018-03-02T01:03:07.501Z,48.87
2018-03-02T01:05:36.186Z,48.82
2018-03-02T01:08:05.278Z,48.69
2018-03-02T01:10:33.912Z,48.96
2018-03-02T01:13:03.363Z,48.92
2018-03-02T01:15:32.356Z,48.79
2018-03-02T01:18:00.944Z,47.95
2018-03-02T01:20:29.728Z,47.61
2018-03-02T01:22:58.523Z,47.50
2018-03-02T01:25:27.209Z,48.65
2018-03-02T01:27:55.833Z,47.71
2018-03-02T01:30:25.296Z,47.36
2018-03-02T01:32:53.946Z,47.60
2018-03-02T01:35:22.666Z,46.97
2018-03-02T01:37:51.560Z,47.52
2018-03-02T01:40:20.247Z,47.21
2018-03-02T01:42:49.031Z,48.41
2018-03-02T01:45:17.924Z,47.90
2018-03-02T01:47:46.710Z,47.01
2018-03-02T01:50:15.396Z,47.23
2018-03-02T01:52:44.080Z,46.48
2018-03-02T01:55:12.830Z,46.89
2018-03-02T01:57:41.454Z,47.48
2018-03-02T02:00:10.238Z,47.31
2018-03-02T02:02:38.924Z,47.50
2018-03-02T02:05:07.575Z,46.92
2018-03-02T02:07:37.411Z,44.71
2018-03-02T02:10:06.113Z,43.85
2018-03-02T02:12:34.796Z,43.55
2018-03-02T02:15:03.584Z,44.56
2018-03-02T02:17:32.156Z,45.61
2018-03-02T02:20:00.855Z,45.66
2018-03-02T02:22:29.640Z,44.81
2018-03-02T02:24:58.352Z,43.92
2018-03-02T02:27:26.903Z,45.00
2018-03-02T02:29:55.951Z,45.08
2018-03-02T02:32:25.414Z,46.56
2018-03-02T02:34:54.036Z,46.44
2018-03-02T02:37:23.599Z,46.37
2018-03-02T02:39:52.284Z,48.05
2018-03-02T02:42:20.915Z,48.40
2018-03-02T02:44:50.480Z,47.91
2018-03-02T02:47:19.226Z,47.64
2018-03-02T02:49:47.949Z,48.14
2018-03-02T02:52:16.910Z,48.46
2018-03-02T02:54:45.457Z,47.33
2018-03-02T02:57:14.991Z,46.64
2018-03-02T02:59:43.887Z,46.00
2018-03-02T03:02:12.607Z,44.57
2018-03-02T03:04:41.276Z,46.65
2018-03-02T03:07:10.089Z,48.91
2018-03-02T03:09:38.783Z,48.62
2018-03-02T03:12:07.352Z,47.57
2018-03-02T03:14:36.140Z,45.52
2018-03-02T03:17:04.832Z,44.73
2018-03-02T03:19:33.475Z,45.37
2018-03-02T03:22:02.401Z,46.05
2018-03-02T03:24:30.988Z,50.88
2018-03-02T03:26:59.674Z,53.73
2018-03-02T03:29:28.568Z,50.62
2018-03-02T03:31:57.137Z,49.86
2018-03-02T03:34:25.831Z,54.82
2018-03-02T03:36:54.936Z,55.06
2018-03-02T03:39:23.618Z,55.86
2018-03-02T03:41:52.258Z,56.98
2018-03-02T03:44:21.189Z,56.92
2018-03-02T03:46:49.822Z,56.54
2018-03-02T03:49:19.283Z,55.15
2018-03-02T03:51:47.970Z,52.06
2018-03-02T03:54:16.650Z,50.38
2018-03-02T03:56:46.136Z,50.78
2018-03-02T03:59:14.960Z,51.96
2018-03-02T04:01:44.426Z,51.93
2018-03-02T04:04:13.067Z,53.48
2018-03-02T04:06:42.000Z,50.92
2018-03-02T04:09:10.630Z,52.51
2018-03-02T04:11:40.090Z,51.62
2018-03-02T04:14:09.140Z,51.32
2018-03-02T04:16:37.870Z,50.82
2018-03-02T04:19:06.421Z,52.07
2018-03-02T04:21:35.340Z,55.46
2018-03-02T04:24:03.986Z,54.90
2018-03-02T04:26:32.628Z,51.62
2018-03-02T04:29:01.396Z,49.77
2018-03-02T04:31:30.084Z,50.23
2018-03-02T04:33:58.877Z,54.32
2018-03-02T04:36:27.663Z,52.97
2018-03-02T04:38:56.318Z,50.42
2018-03-02T04:41:25.035Z,51.20
2018-03-02T04:43:53.721Z,50.77
2018-03-02T04:46:22.287Z,49.47
2018-03-02T04:48:50.995Z,49.15
2018-03-02T04:51:19.668Z,48.28
2018-03-02T04:53:48.365Z,49.05
2018-03-02T04:56:16.987Z,48.46
2018-03-02T04:58:46.550Z,49.39
2018-03-02T05:01:15.200Z,52.77
2018-03-02T05:03:43.921Z,52.02
2018-03-02T05:06:13.059Z,49.68
2018-03-02T05:08:42.522Z,48.99
2018-03-02T05:11:11.170Z,48.54
2018-03-02T05:13:39.896Z,46.54
2018-03-02T05:16:08.474Z,47.32
2018-03-02T05:18:37.167Z,50.43
2018-03-02T05:21:06.142Z,48.94
2018-03-02T05:23:34.727Z,50.42
2018-03-02T05:26:03.321Z,49.98
2018-03-02T05:28:32.130Z,49.20
2018-03-02T05:31:00.804Z,49.20
2018-03-02T05:33:29.450Z,48.64
2018-03-02T05:35:58.221Z,48.66
2018-03-02T05:38:27.674Z,48.05
2018-03-02T05:40:57.102Z,49.27
2018-03-02T05:43:26.549Z,48.42
2018-03-02T05:45:55.138Z,49.41
2018-03-02T05:48:24.529Z,49.69
2018-03-02T05:50:53.476Z,49.15
2018-03-02T05:53:22.931Z,49.94
2018-03-02T05:55:51.562Z,48.48
2018-03-02T05:58:21.122Z,48.57
2018-03-02T06:00:49.781Z,46.53
2018-03-02T06:03:18.487Z,46.77
2018-03-02T06:05:47.231Z,46.90
2018-03-02T06:08:15.964Z,48.51
2018-03-02T06:10:44.652Z,46.53
2018-03-02T06:13:13.311Z,46.28
2018-03-02T06:15:42.022Z,46.85
2018-03-02T06:18:10.670Z,47.77
2018-03-02T06:20:39.700Z,46.71
2018-03-02T06:23:08.358Z,45.54
2018-03-02T06:25:37.072Z,44.04
2018-03-02T06:28:05.877Z,43.71
2018-03-02T06:30:34.425Z,42.81
2018-03-02T06:33:02.977Z,42.87
2018-03-02T06:35:32.481Z,42.50
2018-03-02T06:38:01.797Z,39.34
2018-03-02T06:40:30.343Z,39.79
2018-03-02T06:42:59.046Z,38.38
2018-03-02T06:45:28.511Z,38.44
2018-03-02T06:47:57.155Z,38.12
2018-03-02T06:50:25.980Z,37.91
2018-03-02T06:52:54.668Z,35.75
2018-03-02T06:55:23.339Z,37.25
2018-03-02T06:57:52.105Z,36.91
2018-03-02T07:00:20.824Z,36.28
2018-03-02T07:02:49.510Z,38.39
2018-03-02T07:05:18.201Z,37.83
2018-03-02T07:07:46.883Z,39.70
2018-03-02T07:10:15.469Z,41.12
2018-03-02T07:12:44.255Z,40.94
2018-03-02T07:15:12.948Z,42.08
2018-03-02T07:17:41.626Z,42.20
2018-03-02T07:20:10.358Z,44.45
2018-03-02T07:22:39.821Z,43.41
2018-03-02T07:25:08.447Z,40.05
2018-03-02T07:27:38.016Z,38.12
2018-03-02T07:30:06.700Z,39.92
2018-03-02T07:32:35.321Z,39.80
2018-03-02T07:35:05.805Z,40.11
2018-03-02T07:37:34.468Z,43.50
2018-03-02T07:40:03.178Z,43.68
2018-03-02T07:42:31.865Z,43.64
2018-03-02T07:45:00.549Z,40.31
2018-03-02T07:47:29.180Z,40.79
2018-03-02T07:49:58.842Z,41.56
2018-03-02T07:52:27.491Z,40.13
2018-03-02T07:54:56.214Z,41.65
2018-03-02T07:57:25.010Z,40.09
2018-03-02T07:59:53.696Z,41.03
2018-03-02T08:02:22.334Z,43.24
2018-03-02T08:04:51.951Z,45.55
2018-03-02T08:07:21.506Z,41.88
2018-03-02T08:09:50.282Z,41.20
2018-03-02T08:12:19.070Z,41.89
2018-03-02T08:14:47.756Z,39.23
2018-03-02T08:17:16.439Z,41.80
2018-03-02T08:19:45.223Z,41.87
2018-03-02T08:22:13.878Z,40.19
2018-03-02T08:24:42.595Z,44.12
2018-03-02T08:27:11.682Z,41.24
2018-03-02T08:29:40.383Z,39.90
2018-03-02T08:32:08.930Z,39.89
2018-03-02T08:34:37.916Z,41.64
2018-03-02T08:37:06.617Z,39.61
2018-03-02T08:39:35.324Z,38.46
2018-03-02T08:42:04.469Z,37.41
2018-03-02T08:44:33.925Z,37.89
2018-03-02T08:47:02.721Z,38.08
2018-03-02T08:49:31.396Z,36.08
2018-03-02T08:52:00.092Z,32.86
2018-03-02T08:54:28.878Z,33.61
2018-03-02T08:56:57.662Z,35.79
2018-03-02T08:59:26.253Z,35.26
2018-03-02T09:01:54.836Z,34.93
2018-03-02T09:04:23.903Z,38.00
2018-03-02T09:06:52.614Z,38.93
2018-03-02T09:09:21.239Z,39.26
2018-03-02T09:11:50.861Z,36.21
2018-03-02T09:14:19.594Z,32.83
2018-03-02T09:16:48.168Z,33.17
2018-03-02T09:19:16.909Z,37.58
2018-03-02T09:21:46.363Z,35.49
2018-03-02T09:24:14.938Z,31.87
2018-03-02T09:26:43.944Z,33.55
2018-03-02T09:29:12.530Z,32.61
2018-03-02T09:31:41.222Z,33.74
2018-03-02T09:34:10.002Z,34.42
2018-03-02T09:36:38.687Z,32.45
2018-03-02T09:39:07.327Z,35.43
2018-03-02T09:41:36.060Z,33.80
2018-03-02T09:44:04.744Z,33.43
2018-03-02T09:46:33.431Z,33.02
2018-03-02T09:49:02.215Z,33.48
2018-03-02T09:51:30.865Z,31.74
2018-03-02T09:53:59.598Z,33.83
2018-03-02T09:56:28.724Z,37.39
2018-03-02T09:58:58.191Z,36.97
2018-03-02T10:01:26.838Z,34.61
2018-03-02T10:03:55.599Z,34.32
2018-03-02T10:06:25.068Z,33.80
2018-03-02T10:08:53.632Z,38.08
2018-03-02T10:11:22.439Z,36.73
2018-03-02T10:13:51.224Z,38.57
2018-03-02T10:16:19.910Z,38.25
2018-03-02T10:18:48.859Z,35.44
2018-03-02T10:21:17.588Z,37.63
2018-03-02T10:23:46.276Z,32.66
2018-03-02T10:26:15.260Z,34.26
2018-03-02T10:28:43.927Z,32.53
2018-03-02T10:31:13.431Z,31.25
2018-03-02T10:33:42.324Z,32.98
2018-03-02T10:36:11.012Z,32.67
2018-03-02T10:38:39.650Z,34.92
2018-03-02T10:41:08.383Z,32.79
2018-03-02T10:43:37.068Z,32.75
2018-03-02T10:46:05.754Z,33.27
2018-03-02T10:48:34.697Z,31.96
2018-03-02T10:51:04.148Z,31.87
2018-03-02T10:53:32.732Z,31.27
2018-03-02T10:56:01.826Z,29.99
2018-03-02T10:58:30.468Z,31.70
2018-03-02T11:00:59.201Z,34.42
2018-03-02T11:03:36.403Z,31.65
2018-03-02T11:06:05.793Z,33.69
2018-03-02T11:08:34.470Z,32.78
2018-03-02T11:11:03.256Z,32.84
2018-03-02T11:13:31.952Z,33.32
2018-03-02T11:16:01.451Z,35.49
2018-03-02T11:18:30.344Z,35.78
2018-03-02T11:20:58.920Z,35.14
2018-03-02T11:23:27.617Z,36.88
2018-03-02T11:25:56.512Z,37.98
2018-03-02T11:28:25.233Z,36.91
2018-03-02T11:30:53.876Z,33.44
2018-03-02T11:33:22.912Z,33.67
2018-03-02T11:35:51.558Z,35.98
2018-03-02T11:38:20.283Z,34.33
2018-03-02T11:40:49.178Z,35.08
2018-03-02T11:43:17.863Z,34.94
2018-03-02T11:45:46.503Z,34.59
2018-03-02T11:48:15.625Z,34.91
2018-03-02T11:50:44.336Z,34.87
2018-03-02T11:53:13.122Z,33.63
2018-03-02T11:55:41.908Z,32.75
2018-03-02T11:58:10.593Z,35.05
2018-03-02T12:00:39.260Z,36.26
2018-03-02T12:03:08.253Z,36.21
2018-03-02T12:05:36.958Z,34.41
2018-03-02T12:08:05.533Z,36.48
2018-03-02T12:10:34.455Z,35.73
2018-03-02T12:13:03.228Z,35.71
2018-03-02T12:15:31.909Z,34.47
2018-03-02T12:18:00.793Z,34.52
2018-03-02T12:20:29.426Z,33.76
2018-03-02T12:22:58.889Z,37.94
2018-03-02T12:25:27.612Z,38.07
2018-03-02T12:27:57.072Z,34.70
2018-03-02T12:30:25.724Z,34.84
2018-03-02T12:32:54.751Z,34.27
2018-03-02T12:35:23.337Z,34.96
2018-03-02T12:37:51.884Z,32.47
2018-03-02T12:40:20.770Z,35.36
2018-03-02T12:42:49.494Z,33.83
2018-03-02T12:45:18.129Z,37.52
2018-03-02T12:47:47.693Z,38.17
2018-03-02T12:50:16.389Z,37.30
2018-03-02T12:52:45.033Z,36.11
2018-03-02T12:55:13.808Z,36.46
2018-03-02T12:57:42.531Z,33.37
2018-03-02T13:00:11.326Z,31.35
2018-03-02T13:02:40.054Z,31.78
2018-03-02T13:05:09.373Z,34.79
2018-03-02T13:07:38.065Z,34.18
2018-03-02T13:10:06.832Z,31.77
2018-03-02T13:12:36.292Z,30.77
2018-03-02T13:15:04.916Z,33.46
2018-03-02T13:17:34.386Z,34.06
2018-03-02T13:20:03.131Z,37.16
2018-03-02T13:22:43.373Z,35.71
2018-03-02T13:25:12.835Z,35.81
2018-03-02T13:27:59.256Z,36.35
2018-03-02T13:30:29.449Z,36.18
2018-03-02T13:36:05.014Z,36.75
2018-03-02T13:38:34.622Z,38.34
2018-03-02T13:41:21.142Z,35.74
2018-03-02T13:43:50.088Z,35.16
2018-03-02T13:46:18.881Z,36.57
2018-03-02T13:49:06.223Z,35.96
2018-03-02T13:51:35.675Z,37.42
2018-03-02T13:54:04.311Z,34.84
2018-03-02T13:56:51.756Z,38.44
2018-03-02T13:59:20.472Z,39.72
2018-03-02T14:01:49.111Z,40.24
2018-03-02T14:04:35.400Z,40.96
2018-03-02T14:07:04.864Z,39.73
2018-03-02T14:09:33.450Z,42.50
2018-03-02T14:12:02.124Z,42.84
2018-03-02T14:14:30.921Z,41.11
2018-03-02T14:16:59.486Z,40.89
2018-03-02T14:19:28.392Z,43.07
2018-03-02T14:21:57.078Z,41.66
2018-03-02T14:24:25.764Z,40.41
2018-03-02T14:26:55.638Z,39.81
2018-03-02T14:29:24.363Z,41.45
2018-03-02T14:31:53.053Z,39.68
2018-03-02T14:34:21.734Z,40.34
2018-03-02T14:36:50.420Z,39.82
2018-03-02T14:39:19.009Z,42.00
2018-03-02T14:41:47.692Z,41.24
2018-03-02T14:44:16.380Z,40.54
2018-03-02T14:46:45.030Z,41.27
2018-03-02T14:49:14.121Z,43.79
2018-03-02T14:51:42.844Z,42.84
2018-03-02T14:54:11.580Z,41.15
2018-03-02T14:56:41.236Z,42.81
2018-03-02T14:59:09.932Z,42.00
2018-03-02T15:01:38.629Z,42.03
2018-03-02T15:04:07.597Z,45.16
2018-03-02T15:06:36.144Z,43.38
2018-03-02T15:09:04.981Z,43.23
2018-03-02T15:11:33.866Z,43.29
2018-03-02T15:14:02.453Z,43.54
2018-03-02T15:16:31.967Z,42.43
2018-03-02T15:19:01.533Z,41.66
2018-03-02T15:21:30.229Z,43.44
2018-03-02T15:23:58.789Z,44.22
2018-03-02T15:26:27.535Z,44.56
2018-03-02T15:28:56.875Z,43.61
2018-03-02T15:31:25.675Z,43.27
2018-03-02T15:33:54.442Z,46.83
2018-03-02T15:36:23.154Z,42.22
2018-03-02T15:38:51.830Z,41.34
2018-03-02T15:41:20.616Z,43.82
2018-03-02T15:43:49.317Z,42.94
2018-03-02T15:46:18.004Z,41.35
2018-03-02T15:48:46.789Z,42.83
2018-03-02T15:51:15.361Z,41.79
2018-03-02T15:53:44.062Z,40.93
2018-03-02T15:56:12.743Z,40.61
2018-03-02T15:58:41.424Z,43.30
2018-03-02T16:01:10.084Z,42.38
2018-03-02T16:03:39.001Z,43.92
2018-03-02T16:06:07.649Z,44.82
2018-03-02T16:08:36.374Z,41.78
2018-03-02T16:11:05.538Z,45.79
2018-03-02T16:13:34.147Z,45.90
2018-03-02T16:16:02.848Z,45.34
2018-03-02T16:18:31.690Z,43.87
2018-03-02T16:21:00.427Z,44.19
2018-03-02T16:23:29.214Z,43.02
2018-03-02T16:25:58.264Z,42.20
2018-03-02T16:28:26.993Z,40.51
2018-03-02T16:30:55.677Z,41.15
2018-03-02T16:33:24.416Z,42.44
2018-03-02T16:35:53.111Z,42.37
2018-03-02T16:38:21.832Z,42.96
2018-03-02T16:40:50.522Z,43.91
2018-03-02T16:43:19.314Z,42.84
2018-03-02T16:45:48.004Z,43.45
2018-03-02T16:48:16.850Z,44.43
2018-03-02T16:50:45.570Z,44.75
2018-03-02T16:53:14.236Z,45.34
2018-03-02T16:55:43.003Z,46.11
2018-03-02T16:58:12.340Z,45.10
2018-03-02T17:00:41.037Z,45.34
2018-03-02T17:03:09.704Z,44.60
2018-03-02T17:05:38.448Z,45.28
2018-03-02T17:08:07.907Z,45.75
2018-03-02T17:10:37.557Z,45.54
2018-03-02T17:13:07.023Z,46.04
2018-03-02T17:15:35.671Z,45.70
2018-03-02T17:18:04.493Z,46.38
2018-03-02T17:20:33.042Z,47.25
2018-03-02T17:23:01.724Z,47.79
2018-03-02T17:25:30.719Z,46.13
2018-03-02T17:27:59.349Z,46.05
2018-03-02T17:30:28.003Z,44.44
2018-03-02T17:32:56.818Z,46.06
2018-03-02T17:35:25.516Z,46.16
2018-03-02T17:37:54.190Z,47.45
2018-03-02T17:40:23.149Z,46.79
2018-03-02T17:42:51.868Z,46.75
2018-03-02T17:45:20.533Z,46.74
2018-03-02T17:47:49.754Z,47.16
2018-03-02T17:50:18.494Z,45.60
2018-03-02T17:52:47.226Z,46.72
2018-03-02T17:55:16.219Z,46.62
2018-03-02T17:57:44.805Z,46.30
2018-03-02T18:00:13.486Z,46.90
2018-03-02T18:02:42.312Z,46.34
2018-03-02T18:05:11.787Z,47.37
2018-03-02T18:07:41.065Z,47.13
2018-03-02T18:10:09.871Z,47.16
2018-03-02T18:12:38.556Z,47.23
2018-03-02T18:15:07.221Z,47.72
2018-03-02T18:17:35.989Z,47.00
2018-03-02T18:20:04.710Z,45.77
2018-03-02T18:22:33.397Z,48.10
2018-03-02T18:25:02.086Z,48.07
2018-03-02T18:27:30.770Z,49.74
2018-03-02T18:29:59.406Z,48.61
2018-03-02T18:32:29.063Z,48.52
2018-03-02T18:34:57.750Z,49.11
2018-03-02T18:37:26.325Z,47.09
2018-03-02T18:39:55.329Z,48.63
2018-03-02T18:42:24.015Z,48.60
2018-03-02T18:44:52.659Z,50.23
2018-03-02T18:47:21.485Z,49.94
2018-03-02T18:49:50.171Z,50.00
2018-03-02T18:52:18.812Z,49.93
2018-03-02T18:54:47.446Z,51.14
2018-03-02T18:57:16.098Z,51.34
2018-03-02T18:59:45.066Z,50.48
2018-03-02T19:02:14.632Z,50.05
2018-03-02T19:04:43.431Z,51.36
2018-03-02T19:07:12.200Z,50.11
2018-03-02T19:09:41.160Z,50.45
2018-03-02T19:12:09.880Z,49.79
2018-03-02T19:14:38.547Z,48.77
2018-03-02T19:17:07.558Z,50.29
2018-03-02T19:19:36.207Z,50.12
2018-03-02T19:22:04.830Z,50.87
2018-03-02T19:24:33.438Z,50.43
2018-03-02T19:27:02.203Z,50.18
2018-03-02T19:29:30.853Z,50.15
2018-03-02T19:31:59.620Z,48.94
2018-03-02T19:34:29.084Z,49.26
2018-03-02T19:36:58.583Z,49.45
2018-03-02T19:39:27.387Z,50.86
2018-03-02T19:41:56.067Z,49.24
2018-03-02T19:44:24.847Z,47.37
2018-03-02T19:46:53.939Z,48.83
2018-03-02T19:49:22.991Z,47.56
2018-03-02T19:51:52.537Z,47.01
2018-03-02T19:54:21.328Z,46.70
2018-03-02T19:56:50.019Z,48.19
2018-03-02T19:59:18.636Z,48.10
2018-03-02T20:01:48.159Z,49.03
2018-03-02T20:04:16.889Z,50.06
2018-03-02T20:06:45.519Z,49.01
2018-03-02T20:09:15.036Z,47.90
2018-03-02T20:11:43.769Z,48.89
2018-03-02T20:14:12.522Z,48.62
2018-03-02T20:16:41.240Z,47.68
2018-03-02T20:19:09.829Z,49.10
2018-03-02T20:21:38.476Z,48.83
2018-03-02T20:24:07.243Z,50.95
2018-03-02T20:26:36.705Z,49.85
2018-03-02T20:29:05.491Z,52.24
2018-03-02T20:31:34.221Z,53.95
2018-03-02T20:34:03.685Z,49.72
2018-03-02T20:36:32.304Z,48.91
2018-03-02T20:39:01.869Z,50.96
2018-03-02T20:41:30.554Z,50.68
2018-03-02T20:43:59.185Z,52.17
2018-03-02T20:46:28.749Z,51.72
2018-03-02T20:48:57.433Z,50.71
2018-03-02T20:51:26.008Z,53.01
2018-03-02T20:53:54.905Z,51.34
2018-03-02T20:56:23.593Z,52.25
2018-03-02T20:58:52.275Z,51.46
2018-03-02T21:01:21.138Z,53.09
2018-03-02T21:03:49.862Z,52.05
2018-03-02T21:06:18.540Z,52.46
2018-03-02T21:08:47.226Z,52.29
2018-03-02T21:11:16.734Z,52.31
2018-03-02T21:13:45.297Z,53.46
2018-03-02T21:16:14.015Z,53.05
2018-03-02T21:18:44.218Z,50.94
2018-03-02T21:21:12.797Z,52.11
2018-03-02T21:23:41.591Z,53.39
2018-03-02T21:26:10.276Z,53.99
2018-03-02T21:28:39.025Z,53.41
2018-03-02T21:31:08.122Z,52.54
2018-03-02T21:33:36.849Z,51.97
2018-03-02T21:36:05.534Z,51.70
2018-03-02T21:38:34.221Z,52.26
2018-03-02T21:41:02.808Z,53.80
2018-03-02T21:43:31.456Z,53.82
2018-03-02T21:46:00.177Z,53.54
2018-03-02T21:48:28.818Z,53.34
2018-03-02T21:50:57.549Z,54.31
2018-03-02T21:53:26.334Z,55.36
2018-03-02T21:55:55.020Z,53.34
2018-03-02T21:58:23.652Z,52.32
2018-03-02T22:00:53.360Z,52.05
2018-03-02T22:03:22.777Z,55.50
2018-03-02T22:05:51.506Z,52.27
2018-03-02T22:08:20.604Z,52.90
2018-03-02T22:10:49.150Z,54.11
2018-03-02T22:13:17.871Z,53.81
2018-03-02T22:15:46.656Z,52.01
2018-03-02T22:18:15.308Z,53.81
2018-03-02T22:20:44.027Z,54.10
2018-03-02T22:23:12.769Z,55.73
2018-03-02T22:25:41.462Z,55.57
2018-03-02T22:28:10.183Z,56.36
2018-03-02T22:30:38.872Z,57.44
2018-03-02T22:33:08.344Z,55.04
2018-03-02T22:35:36.978Z,55.34
2018-03-02T22:38:06.339Z,54.56
2018-03-02T22:40:35.011Z,57.78
2018-03-02T22:43:03.700Z,56.97
2018-03-02T22:45:32.428Z,56.52
2018-03-02T22:48:01.884Z,54.10
2018-03-02T22:50:30.537Z,55.47
2018-03-02T22:52:59.262Z,57.15
2018-03-02T22:55:27.899Z,56.69
2018-03-02T22:57:56.627Z,54.72
2018-03-02T23:00:25.344Z,58.77
2018-03-02T23:02:54.047Z,57.22
2018-03-02T23:05:23.409Z,57.34
2018-03-02T23:07:52.291Z,58.87
2018-03-02T23:10:20.933Z,59.36
2018-03-02T23:12:49.667Z,57.24
2018-03-02T23:15:18.662Z,57.47
2018-03-02T23:17:47.451Z,54.56
2018-03-02T23:20:16.136Z,54.19
2018-03-02T23:22:45.020Z,57.05
2018-03-02T23:25:13.705Z,58.75
2018-03-02T23:27:42.354Z,57.62
2018-03-02T23:30:11.077Z,56.04
2018-03-02T23:32:39.714Z,56.77
2018-03-02T23:35:09.029Z,54.40
2018-03-02T23:37:37.899Z,53.11
2018-03-02T23:40:07.413Z,58.47
2018-03-02T23:42:36.865Z,59.13
2018-03-02T23:45:05.650Z,57.23
2018-03-02T23:47:34.334Z,57.30
2018-03-02T23:50:02.986Z,54.84
2018-03-02T23:52:31.751Z,53.96
2018-03-02T23:55:01.277Z,57.07
2018-03-02T23:57:29.998Z,56.69
2018-03-02T23:59:59.202Z,54.08
